Time;durP1;ratioP1;P1;durP2;ratioP2;P2;SDS_P1;SDS_P2;PMS_P1;PMS_P2;Temp;Humidity;BMP_temperature;BMP_pressure;BME280_temperature;BME280_humidity;BME280_pressure;Samples;Min_cycle;Max_cycle;Signal;HPM_P1;HPM_P2
2023/10/15 00:00:17;;;;;;;12.20;2.67;;;;;;;14.73;100.00;96383.88;5053141;28;20473;-87
2023/10/15 00:02:44;;;;;;;7.10;2.60;;;;;;;14.61;100.00;96383.50;5030142;28;20017;-87
2023/10/15 00:05:35;;;;;;;8.20;2.80;;;;;;;14.49;100.00;96382.28;5025970;28;20055;-87
2023/10/15 00:08:01;;;;;;;8.50;2.90;;;;;;;14.31;100.00;96386.03;5035600;28;20091;-87
2023/10/15 00:10:28;;;;;;;8.57;3.37;;;;;;;14.49;100.00;96387.56;5035802;28;20048;-88
2023/10/15 00:12:54;;;;;;;8.03;2.87;;;;;;;14.56;100.00;96383.22;5047082;28;20029;-86
2023/10/15 00:28:09;;;;;;;9.03;3.53;;;;;;;14.21;100.00;96387.28;5050340;28;20852;-86
2023/10/15 00:30:37;;;;;;;10.77;4.00;;;;;;;14.38;100.00;96387.00;5044728;28;20030;-87
2023/10/15 00:33:06;;;;;;;7.70;2.57;;;;;;;14.45;100.00;96380.97;5044781;28;20103;-87
2023/10/15 00:35:33;;;;;;;5.77;2.70;;;;;;;14.23;100.00;96386.13;5049947;28;20472;-87
2023/10/15 00:38:19;;;;;;;6.67;2.60;;;;;;;14.31;100.00;96391.31;5038307;28;20020;-87
2023/10/15 00:40:53;;;;;;;6.47;2.90;;;;;;;14.22;100.00;96388.94;5042760;28;20766;-87
2023/10/15 00:43:20;;;;;;;8.37;3.27;;;;;;;14.03;100.00;96383.13;5080040;28;20025;-87
2023/10/15 00:45:46;;;;;;;8.97;2.67;;;;;;;14.14;100.00;96384.53;5051448;28;20070;-87
2023/10/15 00:48:22;;;;;;;9.00;3.10;;;;;;;14.02;100.00;96385.97;5068815;28;20074;-87
2023/10/15 00:50:48;;;;;;;13.97;3.33;;;;;;;13.84;100.00;96384.41;5064137;28;20029;-87
2023/10/15 00:53:25;;;;;;;8.00;2.87;;;;;;;13.68;100.00;96379.25;5065379;28;20083;-87
2023/10/15 00:56:08;;;;;;;9.50;2.97;;;;;;;13.71;100.00;96383.34;5033021;28;20024;-88
2023/10/15 00:58:37;;;;;;;9.50;3.47;;;;;;;13.66;100.00;96381.25;5079547;28;20720;-87
2023/10/15 01:04:06;;;;;;;7.67;3.23;;;;;;;13.82;100.00;96365.28;5034920;28;20447;-88
2023/10/15 01:06:38;;;;;;;9.17;3.20;;;;;;;13.55;100.00;96369.28;5047483;28;20410;-88
2023/10/15 01:09:09;;;;;;;7.93;3.38;;;;;;;13.60;100.00;96366.09;5047874;28;20484;-89
2023/10/15 01:11:37;;;;;;;9.17;3.07;;;;;;;14.17;100.00;96362.22;5051818;28;20041;-88
2023/10/15 01:14:03;;;;;;;8.80;2.80;;;;;;;14.13;100.00;96356.44;5036154;28;20040;-87
2023/10/15 01:16:36;;;;;;;8.50;3.30;;;;;;;13.84;100.00;96357.16;5051494;28;20055;-87
2023/10/15 01:19:15;;;;;;;4.13;2.15;;;;;;;13.85;100.00;96359.66;5035283;28;20028;-88
2023/10/15 01:21:57;;;;;;;11.93;3.93;;;;;;;13.75;100.00;96350.28;5031965;28;20047;-87
2023/10/15 01:24:33;;;;;;;;;;;;;;;13.92;100.00;96354.47;5051242;28;20081;-88
2023/10/15 01:27:09;;;;;;;8.10;3.20;;;;;;;13.60;100.00;96350.22;5054148;28;19913;-88
2023/10/15 01:29:38;;;;;;;10.03;3.27;;;;;;;13.88;100.00;96354.00;5049233;28;20017;-88
2023/10/15 01:32:13;;;;;;;11.37;3.00;;;;;;;13.68;100.00;96348.38;5030021;28;20033;-88
2023/10/15 01:34:45;;;;;;;9.17;3.40;;;;;;;13.83;100.00;96350.25;5067439;28;20025;-88
2023/10/15 01:39:54;;;;;;;7.03;2.93;;;;;;;13.94;100.00;96349.00;5042829;28;20024;-88
2023/10/15 01:44:54;;;;;;;7.83;3.10;;;;;;;14.12;100.00;96346.88;5044280;28;20578;-88
2023/10/15 01:47:27;;;;;;;10.07;2.90;;;;;;;13.99;100.00;96336.91;5029872;28;20057;-88
2023/10/15 01:49:56;;;;;;;9.67;3.40;;;;;;;13.77;100.00;96338.53;5034470;28;20032;-87
2023/10/15 01:52:30;;;;;;;8.50;3.33;;;;;;;13.68;100.00;96348.38;5034987;28;20036;-88
2023/10/15 01:55:02;;;;;;;9.47;3.10;;;;;;;13.86;100.00;96341.97;5040615;28;20435;-88
2023/10/15 01:57:28;;;;;;;9.57;3.13;;;;;;;13.64;100.00;96343.59;5032229;28;20111;-88
2023/10/15 02:00:05;;;;;;;11.10;3.33;;;;;;;13.76;100.00;96351.94;5045842;28;20033;-88
2023/10/15 02:02:38;;;;;;;14.27;5.47;;;;;;;14.06;100.00;96352.88;5054593;28;20104;-88
2023/10/15 02:05:04;;;;;;;8.60;2.70;;;;;;;13.97;100.00;96351.28;5037588;28;20025;-88
2023/10/15 02:07:31;;;;;;;7.43;2.57;;;;;;;14.21;100.00;96350.25;5030177;28;20625;-88
2023/10/15 02:09:57;;;;;;;5.60;2.67;;;;;;;14.20;100.00;96357.38;5040837;28;20013;-88
2023/10/15 02:12:22;;;;;;;7.30;2.80;;;;;;;13.98;100.00;96358.22;5039915;28;20021;-88
2023/10/15 02:14:51;;;;;;;10.83;3.33;;;;;;;13.86;100.00;96356.00;5046059;28;20079;-88
2023/10/15 02:17:24;;;;;;;8.77;3.30;;;;;;;14.18;100.00;96350.63;5037262;28;20048;-88
2023/10/15 02:19:50;;;;;;;10.77;3.03;;;;;;;14.30;100.00;96352.66;5032355;28;20086;-87
2023/10/15 02:22:16;;;;;;;9.03;3.23;;;;;;;14.51;100.00;96353.81;5027561;28;20030;-88
2023/10/15 02:24:47;;;;;;;7.30;2.63;;;;;;;14.37;100.00;96350.13;5051617;28;20399;-88
2023/10/15 02:27:24;;;;;;;10.87;3.07;;;;;;;14.44;100.00;96355.50;5039416;28;20073;-87
2023/10/15 02:29:52;;;;;;;9.63;3.23;;;;;;;14.51;100.00;96359.09;5026899;28;20083;-88
2023/10/15 02:32:21;;;;;;;14.97;3.23;;;;;;;14.18;100.00;96354.09;5032078;28;20048;-88
2023/10/15 02:34:50;;;;;;;8.07;3.03;;;;;;;14.50;100.00;96358.28;5034556;28;20020;-88
2023/10/15 02:37:23;;;;;;;8.90;2.53;;;;;;;14.22;100.00;96360.69;5043969;28;20048;-87
2023/10/15 02:40:16;;;;;;;13.73;3.50;;;;;;;14.15;100.00;96363.22;5021015;28;20028;-88
2023/10/15 02:42:43;;;;;;;9.23;2.77;;;;;;;13.89;100.00;96360.13;5046678;28;20060;-87
2023/10/15 02:45:14;;;;;;;8.20;2.37;;;;;;;13.96;100.00;96368.97;5060567;28;20071;-88
2023/10/15 02:47:48;;;;;;;7.47;2.80;;;;;;;14.05;100.00;96360.00;5051635;28;20103;-87
2023/10/15 02:50:18;;;;;;;4.93;2.40;;;;;;;14.32;100.00;96353.31;5034623;28;20037;-88
2023/10/15 02:52:45;;;;;;;9.93;2.90;;;;;;;13.91;100.00;96353.63;5051384;28;20029;-88
2023/10/15 02:55:14;;;;;;;6.73;2.37;;;;;;;14.23;100.00;96348.28;5033783;28;20025;-87
2023/10/15 02:57:42;;;;;;;10.93;3.17;;;;;;;14.26;100.00;96350.56;5034295;28;20392;-88
2023/10/15 03:00:28;;;;;;;8.30;3.03;;;;;;;14.33;100.00;96352.31;5034215;28;20392;-88
2023/10/15 03:02:56;;;;;;;7.23;2.40;;;;;;;14.61;100.00;96351.72;5026215;28;20016;-87
2023/10/15 03:05:30;;;;;;;6.27;2.63;;;;;;;14.61;100.00;96357.03;5022134;28;20059;-88
2023/10/15 03:07:59;;;;;;;9.93;2.43;;;;;;;14.59;100.00;96361.69;5028579;28;20035;-88
2023/10/15 03:13:32;;;;;;;8.43;2.30;;;;;;;14.47;100.00;96358.63;5025460;28;20052;-88
2023/10/15 03:16:07;;;;;;;6.30;2.30;;;;;;;14.47;100.00;96353.31;5010108;28;20500;-88
2023/10/15 03:18:34;;;;;;;6.27;2.10;;;;;;;14.71;100.00;96356.75;5022621;28;20033;-87
2023/10/15 03:21:16;;;;;;;9.33;2.83;;;;;;;14.79;100.00;96354.84;5038345;28;20032;-87
2023/10/15 03:23:42;;;;;;;8.93;2.50;;;;;;;14.58;100.00;96352.09;5031827;28;20528;-88
2023/10/15 03:26:17;;;;;;;12.90;3.43;;;;;;;14.78;100.00;96355.03;5032718;28;20087;-87
2023/10/15 03:28:45;;;;;;;12.20;3.13;;;;;;;14.99;100.00;96346.34;5036326;28;20036;-88
2023/10/15 03:31:15;;;;;;;9.33;2.43;;;;;;;14.66;100.00;96340.63;5026574;28;20109;-88
2023/10/15 03:33:58;;;;;;;8.40;2.83;;;;;;;14.78;100.00;96339.94;5031512;28;20029;-88
2023/10/15 03:36:29;;;;;;;4.60;2.00;;;;;;;14.82;100.00;96335.97;5030168;28;20027;-88
2023/10/15 03:38:57;;;;;;;7.43;2.33;;;;;;;14.85;100.00;96337.41;5024661;28;20028;-87
2023/10/15 03:41:27;;;;;;;11.73;3.93;;;;;;;14.85;100.00;96332.09;5030352;28;20167;-87
2023/10/15 03:43:56;;;;;;;7.67;2.60;;;;;;;14.83;100.00;96342.88;5040714;28;20020;-88
2023/10/15 03:46:25;;;;;;;8.03;2.90;;;;;;;15.02;100.00;96336.22;5045824;28;20291;-88
2023/10/15 03:48:53;;;;;;;7.67;2.53;;;;;;;14.89;100.00;96345.78;5032229;28;20021;-87
2023/10/15 03:51:22;;;;;;;9.50;3.87;;;;;;;14.92;100.00;96343.59;5028304;28;20040;-88
2023/10/15 03:53:51;;;;;;;8.27;2.10;;;;;;;14.74;100.00;96345.81;5032213;28;20021;-88
2023/10/15 03:56:27;;;;;;;9.20;2.37;;;;;;;14.93;100.00;96344.44;5032135;28;20027;-88
2023/10/15 03:58:53;;;;;;;10.17;2.73;;;;;;;14.72;100.00;96350.44;5048150;28;20020;-88
2023/10/15 04:01:19;;;;;;;10.73;2.47;;;;;;;14.76;100.00;96344.63;5031432;28;20021;-88
2023/10/15 04:03:48;;;;;;;10.80;2.47;;;;;;;14.70;100.00;96342.69;5053098;28;20021;-88
2023/10/15 04:06:18;;;;;;;7.27;2.57;;;;;;;14.94;100.00;96343.44;5052923;28;20092;-88
2023/10/15 04:11:45;;;;;;;6.67;2.40;;;;;;;15.06;100.00;96331.38;5047919;28;20020;-87
2023/10/15 04:14:17;;;;;;;7.73;2.23;;;;;;;15.08;100.00;96339.94;5039757;28;20029;-88
2023/10/15 04:16:44;;;;;;;5.57;2.78;;;;;;;14.93;100.00;96341.78;5022672;28;20089;-87
2023/10/15 04:19:10;;;;;;;10.30;2.70;;;;;;;14.86;100.00;96339.06;5032272;28;20549;-87
2023/10/15 04:21:39;;;;;;;7.40;2.93;;;;;;;14.99;100.00;96339.22;5034875;28;20033;-88
2023/10/15 04:24:07;;;;;;;7.30;2.57;;;;;;;15.06;100.00;96344.63;5035221;28;20462;-88
2023/10/15 04:26:40;;;;;;;9.67;2.60;;;;;;;14.92;100.00;96340.13;5034621;28;20033;-87
2023/10/15 04:29:18;;;;;;;4.93;2.10;;;;;;;15.31;100.00;96337.16;5026215;28;20472;-88
2023/10/15 04:32:00;;;;;;;7.57;2.40;;;;;;;14.95;100.00;96337.13;5034562;28;20040;-88
2023/10/15 04:34:28;;;;;;;12.87;2.83;;;;;;;15.00;100.00;96332.91;5027557;28;20030;-87
2023/10/15 04:36:57;;;;;;;10.57;2.77;;;;;;;15.35;100.00;96335.78;5033925;28;20029;-88
2023/10/15 04:39:23;;;;;;;8.77;2.13;;;;;;;15.32;100.00;96339.66;5034294;28;20104;-88
2023/10/15 04:41:49;;;;;;;9.23;2.70;;;;;;;15.21;100.00;96334.81;5027398;28;20049;-88
2023/10/15 04:44:31;;;;;;;7.13;2.87;;;;;;;15.47;100.00;96339.59;5036073;28;20085;-88
2023/10/15 04:47:04;;;;;;;7.93;2.43;;;;;;;15.48;100.00;96335.09;5033183;28;20124;-88
2023/10/15 04:49:33;;;;;;;;;;;;;;;14.95;100.00;96324.69;5035439;28;20029;-87
2023/10/15 04:51:59;;;;;;;8.60;4.23;;;;;;;15.24;100.00;96323.03;5042587;28;19982;-88
2023/10/15 04:54:26;;;;;;;7.60;2.33;;;;;;;15.51;100.00;96329.44;5034676;28;20527;-88
2023/10/15 04:56:52;;;;;;;10.43;3.00;;;;;;;15.16;100.00;96323.97;5045987;28;20058;-88
2023/10/15 04:59:18;;;;;;;8.30;2.47;;;;;;;15.22;100.00;96328.50;5028981;28;20637;-88
2023/10/15 05:01:45;;;;;;;5.63;3.17;;;;;;;15.34;100.00;96328.84;5042754;28;20160;-88
2023/10/15 05:04:11;;;;;;;10.30;2.60;;;;;;;15.19;100.00;96331.53;5031487;28;20095;-87
2023/10/15 05:06:40;;;;;;;7.93;2.50;;;;;;;15.42;100.00;96327.91;5029882;28;20120;-88
2023/10/15 05:09:09;;;;;;;9.57;2.60;;;;;;;15.27;100.00;96325.31;5034237;28;20032;-88
2023/10/15 05:11:35;;;;;;;10.33;2.73;;;;;;;15.16;100.00;96331.09;5034215;28;20056;-88
2023/10/15 05:14:01;;;;;;;10.20;3.50;;;;;;;15.07;100.00;96327.72;5049428;28;20029;-89
2023/10/15 05:16:26;;;;;;;9.67;2.67;;;;;;;15.16;100.00;96326.59;5031706;28;20702;-89
2023/10/15 05:18:52;;;;;;;9.20;2.73;;;;;;;15.09;100.00;96329.19;5046225;28;20053;-88
2023/10/15 05:21:18;;;;;;;7.97;2.50;;;;;;;15.06;100.00;96326.06;5063591;28;20005;-88
2023/10/15 05:23:45;;;;;;;5.23;1.93;;;;;;;14.96;100.00;96325.53;5048076;28;20025;-88
2023/10/15 05:26:11;;;;;;;5.03;2.37;;;;;;;14.85;100.00;96332.94;5042192;28;20029;-88
2023/10/15 05:28:37;;;;;;;7.27;2.60;;;;;;;14.71;100.00;96343.53;5025288;28;20029;-88
2023/10/15 05:31:02;;;;;;;8.37;2.50;;;;;;;14.29;100.00;96340.44;5032385;28;20029;-88
2023/10/15 05:33:28;;;;;;;7.73;2.37;;;;;;;14.74;100.00;96349.28;5034432;28;20052;-88
2023/10/15 05:35:56;;;;;;;9.13;2.97;;;;;;;14.52;100.00;96355.44;5028789;28;20021;-88
2023/10/15 05:38:22;;;;;;;8.17;2.60;;;;;;;14.62;100.00;96348.09;5035139;28;20035;-87
2023/10/15 05:40:49;;;;;;;10.73;2.60;;;;;;;14.80;100.00;96353.84;5029691;28;20024;-88
2023/10/15 05:43:17;;;;;;;7.77;2.97;;;;;;;14.54;100.00;96353.47;5026649;28;20033;-87
2023/10/15 05:45:46;;;;;;;7.83;2.77;;;;;;;14.82;100.00;96351.00;5030739;28;20388;-87
2023/10/15 05:48:11;;;;;;;8.03;2.37;;;;;;;14.85;100.00;96353.28;5044571;28;20867;-87
2023/10/15 05:50:49;;;;;;;8.80;2.43;;;;;;;14.74;100.00;96346.63;5026778;28;20031;-87
2023/10/15 05:53:16;;;;;;;8.33;2.40;;;;;;;14.72;100.00;96342.50;5041606;28;20031;-88
2023/10/15 05:55:41;;;;;;;9.40;2.30;;;;;;;14.59;100.00;96356.41;5031986;28;20017;-88
2023/10/15 05:58:10;;;;;;;11.90;2.70;;;;;;;14.70;100.00;96353.28;5027484;28;20086;-87
2023/10/15 06:00:44;;;;;;;6.87;2.43;;;;;;;14.68;100.00;96347.34;5050855;28;20029;-87
2023/10/15 06:03:10;;;;;;;6.90;2.20;;;;;;;14.89;100.00;96353.72;5024778;28;20124;-87
2023/10/15 06:05:36;;;;;;;9.10;3.30;;;;;;;15.00;100.00;96353.28;5033193;28;20031;-87
2023/10/15 06:08:02;;;;;;;6.73;2.83;;;;;;;14.55;100.00;96363.03;5033102;28;20048;-87
2023/10/15 06:10:30;;;;;;;6.70;2.40;;;;;;;14.64;100.00;96364.59;5029795;28;20029;-87
2023/10/15 06:12:56;;;;;;;8.87;3.53;;;;;;;14.81;100.00;96366.06;5050005;28;20020;-88
2023/10/15 06:15:22;;;;;;;6.77;2.80;;;;;;;15.16;100.00;96369.00;5063907;28;20021;-87
2023/10/15 06:17:48;;;;;;;9.57;4.07;;;;;;;15.14;100.00;96376.28;5033674;28;20040;-87
2023/10/15 06:20:13;;;;;;;9.27;3.80;;;;;;;15.33;100.00;96385.50;5032560;28;20025;-87
2023/10/15 06:22:43;;;;;;;11.40;3.40;;;;;;;15.38;100.00;96388.41;5019072;28;20039;-87
2023/10/15 06:25:11;;;;;;;6.87;2.97;;;;;;;15.13;100.00;96395.03;5027061;28;20029;-87
2023/10/15 06:27:38;;;;;;;6.50;2.93;;;;;;;15.23;100.00;96406.97;5030567;28;20037;-88
2023/10/15 06:30:06;;;;;;;8.13;2.33;;;;;;;15.09;100.00;96400.69;5028173;28;20033;-88
2023/10/15 06:32:32;;;;;;;11.27;2.80;;;;;;;15.04;100.00;96402.22;5031097;28;20028;-87
2023/10/15 06:34:59;;;;;;;6.03;2.23;;;;;;;14.94;100.00;96412.28;5034758;28;20033;-87
2023/10/15 06:37:26;;;;;;;6.97;2.57;;;;;;;14.99;100.00;96412.53;5033909;28;20032;-87
2023/10/15 06:39:56;;;;;;;12.67;2.87;;;;;;;14.90;100.00;96411.00;5047284;28;20031;-88
2023/10/15 06:42:28;;;;;;;10.80;4.07;;;;;;;15.13;100.00;96419.69;5066559;28;20033;-87
2023/10/15 06:44:55;;;;;;;9.13;2.60;;;;;;;14.75;100.00;96435.63;5028727;28;20033;-88
2023/10/15 06:47:20;;;;;;;4.67;2.50;;;;;;;14.87;100.00;96437.84;5026097;28;20072;-87
2023/10/15 06:49:53;;;;;;;9.00;2.70;;;;;;;13.99;100.00;96441.84;5048139;28;20024;-85
2023/10/15 06:52:19;;;;;;;5.55;2.53;;;;;;;14.72;100.00;96440.44;5038719;28;20055;-87
2023/10/15 06:54:50;;;;;;;8.03;2.07;;;;;;;14.61;100.00;96431.13;5032053;28;20120;-88
2023/10/15 06:57:16;;;;;;;5.00;1.47;;;;;;;14.48;100.00;96425.59;5049414;28;20029;-88
2023/10/15 06:59:50;;;;;;;3.97;1.40;;;;;;;14.91;100.00;96428.53;5043411;28;20021;-87
2023/10/15 07:02:16;;;;;;;6.43;1.90;;;;;;;15.06;100.00;96427.53;5031483;28;20025;-88
2023/10/15 07:04:41;;;;;;;5.53;1.80;;;;;;;14.89;100.00;96425.22;5047232;28;20503;-87
2023/10/15 07:07:07;;;;;;;4.47;1.87;;;;;;;15.23;100.00;96427.34;5038473;28;20036;-88
2023/10/15 07:09:32;;;;;;;5.73;2.10;;;;;;;15.17;100.00;96434.19;5051329;28;20017;-86
2023/10/15 07:11:59;;;;;;;3.33;1.60;;;;;;;15.05;100.00;96435.66;5033531;28;20048;-88
2023/10/15 07:14:25;;;;;;;5.73;2.00;;;;;;;14.93;100.00;96429.19;5034053;28;20484;-87
2023/10/15 07:16:50;;;;;;;6.20;2.13;;;;;;;14.79;100.00;96426.34;5045180;28;20044;-87
2023/10/15 07:19:27;;;;;;;6.10;1.90;;;;;;;14.92;100.00;96433.63;5032635;28;20037;-88
2023/10/15 07:21:53;;;;;;;4.60;1.30;;;;;;;15.12;100.00;96431.25;5029655;28;20028;-88
2023/10/15 07:24:25;;;;;;;4.90;1.30;;;;;;;15.23;100.00;96433.47;5062766;28;20067;-86
2023/10/15 07:26:52;;;;;;;5.17;1.43;;;;;;;14.87;100.00;96437.84;5040155;28;20024;-87
2023/10/15 07:29:18;;;;;;;4.87;1.80;;;;;;;15.28;100.00;96444.31;5039927;28;20018;-87
2023/10/15 07:31:45;;;;;;;3.43;1.50;;;;;;;15.32;100.00;96442.97;5035197;28;20492;-87
2023/10/15 07:34:11;;;;;;;5.43;1.80;;;;;;;15.53;100.00;96438.75;5045352;28;20017;-86
2023/10/15 07:36:36;;;;;;;6.07;1.50;;;;;;;15.63;100.00;96438.47;5030670;28;20028;-87
2023/10/15 07:39:06;;;;;;;6.03;1.80;;;;;;;15.73;100.00;96436.38;5032379;28;20032;-87
2023/10/15 07:41:33;;;;;;;5.80;1.40;;;;;;;15.53;100.00;96438.75;5032001;28;20446;-88
2023/10/15 07:44:01;;;;;;;5.33;1.50;;;;;;;15.91;100.00;96436.78;5044925;28;20032;-90
2023/10/15 07:46:29;;;;;;;6.20;2.03;;;;;;;15.67;100.00;96440.59;5070948;28;20558;-88
2023/10/15 07:48:56;;;;;;;5.73;1.80;;;;;;;15.86;100.00;96433.03;5033225;28;20361;-88
2023/10/15 07:51:25;;;;;;;7.83;2.30;;;;;;;16.09;100.00;96425.72;5032125;28;20075;-92
2023/10/15 07:53:52;;;;;;;6.13;1.70;;;;;;;15.74;100.00;96430.88;5041425;28;20029;-87
2023/10/15 07:56:17;;;;;;;7.77;2.50;;;;;;;15.97;100.00;96419.28;5037746;28;20031;-87
2023/10/15 07:58:43;;;;;;;8.53;2.47;;;;;;;15.71;100.00;96420.63;5039417;28;20021;-85
2023/10/15 08:01:08;;;;;;;7.73;2.37;;;;;;;15.83;100.00;96425.44;5051901;28;20071;-85
2023/10/15 08:03:41;;;;;;;7.40;2.20;;;;;;;16.34;100.00;96420.88;5038969;28;20036;-87
2023/10/15 08:06:09;;;;;;;5.82;1.92;;;;;;;16.65;100.00;96423.16;5037646;28;20060;-87
2023/10/15 08:08:38;;;;;;;9.27;2.67;;;;;;;16.99;100.00;96420.78;5030091;28;20033;-86
2023/10/15 08:11:03;;;;;;;6.97;2.67;;;;;;;16.62;100.00;96420.88;5050783;28;20029;-87
2023/10/15 08:13:31;;;;;;;7.23;2.60;;;;;;;16.16;100.00;96423.13;5034301;28;20041;-87
2023/10/15 08:15:58;;;;;;;11.60;3.17;;;;;;;16.48;100.00;96424.47;5041967;28;20037;-86
2023/10/15 08:18:38;;;;;;;6.57;3.03;;;;;;;16.05;100.00;96427.13;5051288;28;20028;-87
2023/10/15 08:21:11;;;;;;;11.33;3.70;;;;;;;16.62;100.00;96428.84;5050915;28;20043;-86
2023/10/15 08:23:38;;;;;;;5.83;2.13;;;;;;;16.95;100.00;96428.31;5031244;28;20033;-86
2023/10/15 08:26:11;;;;;;;5.03;2.50;;;;;;;16.71;100.00;96435.69;5067366;28;22159;-86
2023/10/15 08:28:43;;;;;;;8.70;3.78;;;;;;;16.09;100.00;96444.28;5051081;28;20040;-86
2023/10/15 08:31:08;;;;;;;7.73;2.87;;;;;;;16.54;100.00;96431.66;5034795;28;20082;-87
2023/10/15 08:33:41;;;;;;;7.53;2.80;;;;;;;16.52;100.00;96433.69;5033112;28;20033;-85
2023/10/15 08:36:07;;;;;;;4.60;2.53;;;;;;;16.00;100.00;96438.31;5040785;28;20032;-86
2023/10/15 08:38:34;;;;;;;5.93;2.70;;;;;;;16.07;100.00;96434.91;5049323;28;20028;-87
2023/10/15 08:41:08;;;;;;;9.03;2.73;;;;;;;15.33;100.00;96441.16;5044153;28;20033;-87
2023/10/15 08:43:34;;;;;;;6.60;2.63;;;;;;;15.82;100.00;96439.72;5029511;28;20032;-87
2023/10/15 08:46:01;;;;;;;8.20;2.90;;;;;;;15.94;100.00;96440.88;5050664;28;20021;-86
2023/10/15 08:48:35;;;;;;;7.30;3.43;;;;;;;16.06;100.00;96436.72;5050861;28;20044;-87
2023/10/15 08:51:02;;;;;;;5.93;2.80;;;;;;;16.35;100.00;96435.78;5050492;28;20025;-87
2023/10/15 08:53:30;;;;;;;10.30;3.43;;;;;;;16.30;100.00;96435.53;5029195;28;20025;-87
2023/10/15 08:56:01;;;;;;;6.47;2.87;;;;;;;16.25;100.00;96437.94;5032824;28;20060;-87
2023/10/15 08:58:29;;;;;;;13.40;7.73;;;;;;;16.08;100.00;96447.97;5050081;28;20036;-84
2023/10/15 09:01:00;;;;;;;139.10;95.17;;;;;;;16.94;100.00;96442.63;5032463;28;20044;-86
2023/10/15 09:03:32;;;;;;;13.53;7.00;;;;;;;16.61;100.00;96442.34;5036864;28;20472;-87
2023/10/15 09:06:01;;;;;;;7.55;2.83;;;;;;;18.14;100.00;96439.53;5033443;28;20029;-89
2023/10/15 09:08:28;;;;;;;12.97;4.03;;;;;;;19.42;100.00;96430.47;5033787;28;20024;-85
2023/10/15 09:10:54;;;;;;;8.97;3.37;;;;;;;20.57;95.17;96423.34;5033714;28;20029;-86
2023/10/15 09:13:21;;;;;;;8.20;3.43;;;;;;;21.30;83.76;96428.00;5047486;28;20039;-86
2023/10/15 09:15:50;;;;;;;11.80;3.33;;;;;;;20.42;86.24;96422.78;5035646;28;21847;-87
2023/10/15 09:18:16;;;;;;;6.93;2.70;;;;;;;20.70;78.53;96423.22;5031626;28;20025;-87
2023/10/15 09:20:44;;;;;;;12.83;4.10;;;;;;;19.33;89.86;96439.72;5045525;28;20053;-87
2023/10/15 09:23:10;;;;;;;8.07;3.10;;;;;;;18.99;99.06;96441.63;5029976;28;20029;-87
2023/10/15 09:25:36;;;;;;;7.77;2.80;;;;;;;18.26;100.00;96442.38;5024623;28;20091;-87
2023/10/15 09:28:02;;;;;;;6.87;2.37;;;;;;;17.64;100.00;96448.75;5048985;28;20032;-88
2023/10/15 09:30:30;;;;;;;7.77;2.23;;;;;;;18.40;99.15;96453.06;5032367;28;20057;-88
2023/10/15 09:32:59;;;;;;;7.30;2.53;;;;;;;18.30;100.00;96446.28;5030955;28;20491;-87
2023/10/15 09:35:25;;;;;;;7.47;2.67;;;;;;;19.20;95.34;96448.56;5033727;28;20039;-87
2023/10/15 09:37:53;;;;;;;8.80;2.47;;;;;;;18.33;97.04;96447.72;5032211;28;20017;-87
2023/10/15 09:40:31;;;;;;;7.90;2.20;;;;;;;19.46;85.29;96439.69;5049981;28;20027;-86
2023/10/15 09:42:57;;;;;;;7.20;2.33;;;;;;;20.42;77.25;96441.47;5054673;28;20463;-86
2023/10/15 09:45:23;;;;;;;9.27;2.13;;;;;;;19.03;84.90;96433.00;5023213;28;20022;-86
2023/10/15 09:47:57;;;;;;;6.87;1.80;;;;;;;19.23;87.83;96438.31;5046274;28;20021;-85
2023/10/15 09:50:27;;;;;;;8.40;2.47;;;;;;;18.38;87.23;96438.13;5042580;28;20037;-86
2023/10/15 09:52:57;;;;;;;8.23;2.20;;;;;;;18.10;92.79;96443.56;5031084;28;20028;-86
2023/10/15 09:55:27;;;;;;;7.03;2.33;;;;;;;18.61;95.26;96443.06;5035322;28;20025;-85
2023/10/15 09:57:57;;;;;;;8.67;2.47;;;;;;;18.29;99.40;96443.84;5032897;28;20059;-86
2023/10/15 10:00:37;;;;;;;6.93;2.90;;;;;;;18.32;98.75;96454.09;5031357;28;20017;-86
2023/10/15 10:03:49;;;;;;;6.67;2.60;;;;;;;17.61;100.00;96452.59;5032069;28;20025;-84
2023/10/15 10:06:30;;;;;;;4.50;2.03;;;;;;;19.61;84.32;96447.41;5055493;28;20032;-84
2023/10/15 10:09:21;;;;;;;4.93;1.87;;;;;;;18.42;90.33;96440.38;5032180;28;20020;-84
2023/10/15 10:12:05;;;;;;;7.67;1.93;;;;;;;18.30;88.02;96448.13;5027767;28;20029;-84
2023/10/15 10:15:01;;;;;;;6.10;1.60;;;;;;;18.52;86.19;96436.28;5026130;28;20051;-84
2023/10/15 10:17:29;;;;;;;8.07;1.83;;;;;;;17.89;88.21;96443.75;5025167;28;20536;-84
2023/10/15 10:19:55;;;;;;;10.10;2.80;;;;;;;19.34;81.95;96439.50;5031698;28;20380;-84
2023/10/15 10:22:26;;;;;;;7.40;1.60;;;;;;;19.05;78.74;96427.47;5032064;28;20021;-84
2023/10/15 10:24:53;;;;;;;6.47;1.57;;;;;;;18.72;84.78;96430.19;5031253;28;20116;-84
2023/10/15 10:27:19;;;;;;;8.17;1.60;;;;;;;17.89;78.44;96425.94;5028001;28;20021;-84
2023/10/15 10:30:14;;;;;;;6.13;1.30;;;;;;;18.63;77.22;96421.53;5044025;28;20025;-84
2023/10/15 10:32:41;;;;;;;2.87;0.90;;;;;;;17.51;79.38;96425.56;5048714;28;20091;-84
2023/10/15 10:35:20;;;;;;;7.07;1.50;;;;;;;19.15;70.65;96424.34;5033692;28;20032;-84
2023/10/15 10:38:06;;;;;;;6.27;1.30;;;;;;;19.85;65.19;96419.22;5031849;28;20113;-84
2023/10/15 10:40:49;;;;;;;7.70;1.27;;;;;;;20.32;61.04;96417.94;5031890;28;20017;-84
2023/10/15 10:43:19;;;;;;;;;;;;;;;21.14;57.96;96407.19;5027620;28;20021;-84
2023/10/15 10:45:53;;;;;;;4.20;1.40;;;;;;;21.82;51.62;96404.38;5047953;28;19912;-84
2023/10/15 10:48:23;;;;;;;3.37;1.00;;;;;;;20.82;52.17;96407.28;5031414;28;20017;-83
2023/10/15 10:51:12;;;;;;;4.63;0.90;;;;;;;20.75;51.18;96411.88;5031407;28;20075;-84
2023/10/15 10:53:56;;;;;;;3.33;0.80;;;;;;;20.04;50.83;96404.16;5042652;28;20028;-84
2023/10/15 10:56:23;;;;;;;3.80;1.00;;;;;;;18.51;57.61;96413.34;5045447;28;20123;-84
2023/10/15 10:58:54;;;;;;;6.73;1.40;;;;;;;18.35;59.48;96408.41;5031095;28;20453;-84
2023/10/15 11:01:21;;;;;;;4.57;1.33;;;;;;;18.31;63.62;96407.19;5039752;28;20013;-84
2023/10/15 11:03:47;;;;;;;6.03;1.17;;;;;;;19.14;59.85;96401.41;5032298;28;20028;-84
2023/10/15 11:06:15;;;;;;;4.17;1.10;;;;;;;19.82;54.34;96398.31;5030448;28;20029;-84
2023/10/15 11:08:41;;;;;;;4.23;0.90;;;;;;;21.02;49.99;96392.91;5020135;28;20028;-84
2023/10/15 11:11:09;;;;;;;4.80;1.33;;;;;;;20.46;49.74;96389.28;5045898;28;20028;-84
2023/10/15 11:13:34;;;;;;;5.70;0.80;;;;;;;21.86;47.02;96389.50;5020735;28;20036;-84
2023/10/15 11:16:00;;;;;;;8.93;2.03;;;;;;;21.38;46.62;96392.97;5047988;28;20384;-85
2023/10/15 11:18:26;;;;;;;4.57;1.40;;;;;;;21.57;44.79;96391.09;5048028;28;20028;-85
2023/10/15 11:20:52;;;;;;;5.50;1.67;;;;;;;21.02;46.35;96392.91;5031930;28;20017;-84
2023/10/15 11:23:19;;;;;;;4.10;1.43;;;;;;;20.77;46.21;96398.31;5044351;28;20028;-84
2023/10/15 11:25:45;;;;;;;6.77;1.70;;;;;;;21.90;45.96;96395.22;5032149;28;20041;-84
2023/10/15 11:28:11;;;;;;;4.05;1.00;;;;;;;22.18;45.00;96389.28;5043715;28;20493;-84
2023/10/15 11:30:44;;;;;;;6.82;0.80;;;;;;;20.41;47.32;96389.91;5036557;28;20067;-83
2023/10/15 11:33:10;;;;;;;3.50;1.00;;;;;;;21.29;46.68;96390.78;5039095;28;20033;-85
2023/10/15 11:35:37;;;;;;;4.97;1.10;;;;;;;20.63;46.81;96387.72;5060256;28;20051;-85
2023/10/15 11:38:10;;;;;;;3.80;1.13;;;;;;;20.38;49.34;96389.53;5041889;28;20038;-84
2023/10/15 11:40:39;;;;;;;2.37;0.80;;;;;;;20.05;48.02;96406.59;5068076;28;20071;-85
2023/10/15 11:43:17;;;;;;;3.33;0.90;;;;;;;19.85;49.73;96397.88;5051881;28;20025;-85
2023/10/15 11:45:45;;;;;;;3.77;0.87;;;;;;;21.04;49.04;96414.91;5045522;28;20017;-84
2023/10/15 11:48:13;;;;;;;4.63;0.80;;;;;;;19.93;48.31;96425.16;5036214;28;20514;-85
2023/10/15 11:50:41;;;;;;;5.80;1.23;;;;;;;19.53;49.06;96422.63;5051890;28;20025;-85
2023/10/15 11:53:25;;;;;;;4.50;1.10;;;;;;;19.98;48.66;96425.31;5035586;28;20100;-85
2023/10/15 11:55:54;;;;;;;2.33;0.60;;;;;;;19.49;50.30;96431.28;5051468;28;20040;-84
2023/10/15 11:58:23;;;;;;;5.40;0.97;;;;;;;19.41;51.16;96436.81;5033391;28;20083;-84
2023/10/15 12:00:52;;;;;;;2.27;0.77;;;;;;;19.29;50.35;96432.13;5034132;28;20043;-84
2023/10/15 12:03:21;;;;;;;2.87;0.57;;;;;;;19.19;52.30;96430.94;5041046;28;20021;-84
2023/10/15 12:05:47;;;;;;;2.13;0.77;;;;;;;19.63;53.00;96437.38;5034567;28;20055;-83